sensor_id;sensor_type;location;lat;lon;timestamp;pressure;altitude;pressure_sealevel;temperature;humidity
68594;BME280;55563;52.416;13.548;2023-05-19T00:00:31;102273.09;;;8.42;100.00
68594;BME280;55563;52.416;13.548;2023-05-19T00:02:32;102270.09;;;8.39;100.00
68594;BME280;55563;52.416;13.548;2023-05-19T00:04:33;102267.66;;;8.24;100.00
68594;BME280;55563;52.416;13.548;2023-05-19T00:06:35;102270.69;;;8.34;100.00
68594;BME280;55563;52.416;13.548;2023-05-19T00:08:36;102275.31;;;8.19;100.00
68594;BME280;55563;52.416;13.548;2023-05-19T00:10:38;102281.97;;;8.41;100.00
68594;BME280;55563;52.416;13.548;2023-05-19T00:12:38;102283.75;;;8.21;100.00
68594;BME280;55563;52.416;13.548;2023-05-19T00:14:40;102279.31;;;8.02;100.00
68594;BME280;55563;52.416;13.548;2023-05-19T00:16:40;102285.19;;;8.43;100.00
68594;BME280;55563;52.416;13.548;2023-05-19T00:18:42;102274.72;;;8.43;100.00
68594;BME280;55563;52.416;13.548;2023-05-19T00:20:42;102280.56;;;8.39;100.00
68594;BME280;55563;52.416;13.548;2023-05-19T00:22:43;102273.09;;;8.29;100.00
68594;BME280;55563;52.416;13.548;2023-05-19T00:24:44;102275.88;;;8.01;100.00
68594;BME280;55563;52.416;13.548;2023-05-19T00:26:45;102277.34;;;8.30;100.00
68594;BME280;55563;52.416;13.548;2023-05-19T00:28:45;102285.41;;;8.48;100.00
68594;BME280;55563;52.416;13.548;2023-05-19T00:30:46;102275.91;;;8.27;100.00
68594;BME280;55563;52.416;13.548;2023-05-19T00:32:46;102272.47;;;7.94;100.00
68594;BME280;55563;52.416;13.548;2023-05-19T00:34:47;102280.91;;;7.96;100.00
68594;BME280;55563;52.416;13.548;2023-05-19T00:36:48;102276.31;;;8.24;100.00
68594;BME280;55563;52.416;13.548;2023-05-19T00:38:50;102277.72;;;8.07;100.00
68594;BME280;55563;52.416;13.548;2023-05-19T00:40:51;102272.47;;;7.87;100.00
68594;BME280;55563;52.416;13.548;2023-05-19T00:42:52;102272.47;;;7.87;100.00
68594;BME280;55563;52.416;13.548;2023-05-19T00:44:53;102275.28;;;8.06;100.00
68594;BME280;55563;52.416;13.548;2023-05-19T00:46:53;102275.09;;;8.14;100.00
68594;BME280;55563;52.416;13.548;2023-05-19T00:48:54;102273.88;;;7.97;100.00
68594;BME280;55563;52.416;13.548;2023-05-19T00:50:56;102269.47;;;8.17;100.00
68594;BME280;55563;52.416;13.548;2023-05-19T00:53:01;102269.66;;;8.28;100.00
68594;BME280;55563;52.416;13.548;2023-05-19T00:55:02;102275.31;;;8.32;100.00
68594;BME280;55563;52.416;13.548;2023-05-19T00:57:03;102270.66;;;8.21;100.00
68594;BME280;55563;52.416;13.548;2023-05-19T00:59:04;102269.00;;;7.61;100.00
68594;BME280;55563;52.416;13.548;2023-05-19T01:01:05;102272.25;;;7.69;100.00
68594;BME280;55563;52.416;13.548;2023-05-19T01:03:07;102272.47;;;7.87;100.00
68594;BME280;55563;52.416;13.548;2023-05-19T01:05:11;102274.75;;;7.30;100.00
68594;BME280;55563;52.416;13.548;2023-05-19T01:07:12;102280.53;;;7.86;100.00
68594;BME280;55563;52.416;13.548;2023-05-19T01:09:13;102274.44;;;7.59;100.00
68594;BME280;55563;52.416;13.548;2023-05-19T01:11:14;102277.91;;;7.99;100.00
68594;BME280;55563;52.416;13.548;2023-05-19T01:13:14;102278.09;;;7.84;100.00
68594;BME280;55563;52.416;13.548;2023-05-19T01:15:15;102275.66;;;7.57;100.00
68594;BME280;55563;52.416;13.548;2023-05-19T01:19:59;102272.66;;;7.79;100.00
68594;BME280;55563;52.416;13.548;2023-05-19T01:27:20;102263.56;;;7.69;100.00
68594;BME280;55563;52.416;13.548;2023-05-19T01:31:53;102259.19;;;7.76;100.00
68594;BME280;55563;52.416;13.548;2023-05-19T01:33:55;102268.22;;;7.86;100.00
68594;BME280;55563;52.416;13.548;2023-05-19T01:35:58;102265.03;;;7.91;100.00
68594;BME280;55563;52.416;13.548;2023-05-19T01:37:59;102271.25;;;7.77;100.00
68594;BME280;55563;52.416;13.548;2023-05-19T01:40:00;102272.25;;;7.82;100.00
68594;BME280;55563;52.416;13.548;2023-05-19T01:42:02;102272.06;;;7.84;100.00
68594;BME280;55563;52.416;13.548;2023-05-19T01:44:03;102266.00;;;7.57;100.00
68594;BME280;55563;52.416;13.548;2023-05-19T01:46:05;102276.44;;;7.51;100.00
68594;BME280;55563;52.416;13.548;2023-05-19T01:48:06;102281.50;;;7.05;100.00
68594;BME280;55563;52.416;13.548;2023-05-19T01:50:07;102278.38;;;7.35;100.00
68594;BME280;55563;52.416;13.548;2023-05-19T01:52:08;102275.66;;;7.57;100.00
68594;BME280;55563;52.416;13.548;2023-05-19T01:54:08;102277.34;;;7.23;100.00
68594;BME280;55563;52.416;13.548;2023-05-19T01:56:09;102284.66;;;6.93;100.00
68594;BME280;55563;52.416;13.548;2023-05-19T01:58:46;102274.34;;;7.26;100.00
68594;BME280;55563;52.416;13.548;2023-05-19T02:04:00;102265.16;;;7.50;100.00
68594;BME280;55563;52.416;13.548;2023-05-19T02:06:14;102264.28;;;7.30;100.00
68594;BME280;55563;52.416;13.548;2023-05-19T02:10:40;102276.41;;;7.37;100.00
68594;BME280;55563;52.416;13.548;2023-05-19T02:12:50;102275.59;;;7.37;100.00
68594;BME280;55563;52.416;13.548;2023-05-19T02:15:13;102278.31;;;7.16;100.00
68594;BME280;55563;52.416;13.548;2023-05-19T02:17:17;102265.28;;;7.22;100.00
68594;BME280;55563;52.416;13.548;2023-05-19T02:19:24;102268.56;;;7.37;100.00
68594;BME280;55563;52.416;13.548;2023-05-19T02:21:26;102270.81;;;6.99;100.00
68594;BME280;55563;52.416;13.548;2023-05-19T02:23:29;102276.59;;;6.88;100.00
68594;BME280;55563;52.416;13.548;2023-05-19T02:25:31;102266.22;;;7.15;100.00
68594;BME280;55563;52.416;13.548;2023-05-19T02:27:35;102278.22;;;6.89;100.00
68594;BME280;55563;52.416;13.548;2023-05-19T02:29:38;102273.84;;;7.03;100.00
68594;BME280;55563;52.416;13.548;2023-05-19T02:31:40;102272.00;;;6.97;100.00
68594;BME280;55563;52.416;13.548;2023-05-19T02:33:41;102283.09;;;6.99;100.00
68594;BME280;55563;52.416;13.548;2023-05-19T02:35:44;102275.47;;;7.04;100.00
68594;BME280;55563;52.416;13.548;2023-05-19T02:37:45;102270.69;;;7.21;100.00
68594;BME280;55563;52.416;13.548;2023-05-19T02:39:49;102271.09;;;7.18;100.00
68594;BME280;55563;52.416;13.548;2023-05-19T02:41:51;102272.97;;;6.89;100.00
68594;BME280;55563;52.416;13.548;2023-05-19T02:43:52;102264.06;;;7.25;100.00
68594;BME280;55563;52.416;13.548;2023-05-19T02:45:53;102261.81;;;7.09;100.00
68594;BME280;55563;52.416;13.548;2023-05-19T02:47:54;102265.41;;;7.08;100.00
68594;BME280;55563;52.416;13.548;2023-05-19T02:49:57;102269.03;;;7.00;100.00
68594;BME280;55563;52.416;13.548;2023-05-19T02:51:58;102263.69;;;7.28;100.00
68594;BME280;55563;52.416;13.548;2023-05-19T02:54:01;102264.91;;;7.32;100.00
68594;BME280;55563;52.416;13.548;2023-05-19T02:56:03;102255.41;;;7.24;100.00
68594;BME280;55563;52.416;13.548;2023-05-19T02:58:04;102255.03;;;7.34;100.00
68594;BME280;55563;52.416;13.548;2023-05-19T03:00:07;102260.22;;;7.21;100.00
68594;BME280;55563;52.416;13.548;2023-05-19T03:02:09;102249.63;;;7.29;100.00
68594;BME280;55563;52.416;13.548;2023-05-19T03:04:11;102259.38;;;7.07;100.00
68594;BME280;55563;52.416;13.548;2023-05-19T03:06:14;102263.34;;;6.62;100.00
68594;BME280;55563;52.416;13.548;2023-05-19T03:08:17;102250.31;;;7.03;100.00
68594;BME280;55563;52.416;13.548;2023-05-19T03:10:22;102256.84;;;6.86;100.00
68594;BME280;55563;52.416;13.548;2023-05-19T03:12:22;102259.91;;;6.89;100.00
68594;BME280;55563;52.416;13.548;2023-05-19T03:14:24;102255.09;;;6.93;100.00
68594;BME280;55563;52.416;13.548;2023-05-19T03:16:24;102258.59;;;6.72;100.00
68594;BME280;55563;52.416;13.548;2023-05-19T03:18:29;102249.31;;;7.04;100.00
68594;BME280;55563;52.416;13.548;2023-05-19T03:20:30;102258.53;;;6.93;100.00
68594;BME280;55563;52.416;13.548;2023-05-19T03:22:32;102258.91;;;6.90;100.00
68594;BME280;55563;52.416;13.548;2023-05-19T03:24:33;102259.88;;;6.83;100.00
68594;BME280;55563;52.416;13.548;2023-05-19T03:26:34;102262.88;;;6.80;100.00
68594;BME280;55563;52.416;13.548;2023-05-19T03:28:38;102261.44;;;7.18;100.00
68594;BME280;55563;52.416;13.548;2023-05-19T03:30:41;102249.25;;;7.38;100.00
68594;BME280;55563;52.416;13.548;2023-05-19T03:32:50;102267.47;;;7.19;100.00
68594;BME280;55563;52.416;13.548;2023-05-19T03:34:52;102265.13;;;7.37;100.00
68594;BME280;55563;52.416;13.548;2023-05-19T03:36:54;102257.28;;;7.43;100.00
68594;BME280;55563;52.416;13.548;2023-05-19T03:38:57;102260.00;;;7.16;100.00
68594;BME280;55563;52.416;13.548;2023-05-19T03:40:59;102256.25;;;7.31;100.00
68594;BME280;55563;52.416;13.548;2023-05-19T03:43:01;102249.47;;;7.57;100.00
68594;BME280;55563;52.416;13.548;2023-05-19T03:45:05;102256.06;;;7.33;100.00
68594;BME280;55563;52.416;13.548;2023-05-19T03:47:07;102251.06;;;7.44;100.00
68594;BME280;55563;52.416;13.548;2023-05-19T03:49:28;102254.72;;;7.63;100.00
68594;BME280;55563;52.416;13.548;2023-05-19T03:51:49;102255.78;;;7.95;100.00
68594;BME280;55563;52.416;13.548;2023-05-19T03:53:58;102254.34;;;8.06;100.00
68594;BME280;55563;52.416;13.548;2023-05-19T03:55:59;102253.34;;;8.13;100.00
68594;BME280;55563;52.416;13.548;2023-05-19T03:58:00;102260.81;;;8.36;100.00
68594;BME280;55563;52.416;13.548;2023-05-19T04:00:04;102269.22;;;8.64;100.00
68594;BME280;55563;52.416;13.548;2023-05-19T04:02:23;102264.75;;;8.78;100.00
68594;BME280;55563;52.416;13.548;2023-05-19T04:04:27;102256.06;;;9.67;100.00
68594;BME280;55563;52.416;13.548;2023-05-19T04:06:28;102258.19;;;10.07;100.00
68594;BME280;55563;52.416;13.548;2023-05-19T04:08:30;102262.22;;;10.35;100.00
68594;BME280;55563;52.416;13.548;2023-05-19T04:10:33;102270.47;;;10.14;100.00
68594;BME280;55563;52.416;13.548;2023-05-19T04:12:36;102262.72;;;10.25;100.00
68594;BME280;55563;52.416;13.548;2023-05-19T04:14:38;102262.59;;;11.11;100.00
68594;BME280;55563;52.416;13.548;2023-05-19T04:16:39;102265.06;;;11.96;100.00
68594;BME280;55563;52.416;13.548;2023-05-19T04:18:42;102263.13;;;11.91;100.00
68594;BME280;55563;52.416;13.548;2023-05-19T04:20:45;102256.69;;;11.46;100.00
68594;BME280;55563;52.416;13.548;2023-05-19T04:22:46;102265.19;;;11.89;100.00
68594;BME280;55563;52.416;13.548;2023-05-19T04:24:47;102263.50;;;12.18;100.00
68594;BME280;55563;52.416;13.548;2023-05-19T04:26:51;102263.84;;;12.21;100.00
68594;BME280;55563;52.416;13.548;2023-05-19T04:28:54;102259.34;;;12.34;100.00
68594;BME280;55563;52.416;13.548;2023-05-19T04:30:56;102263.72;;;12.16;100.00
68594;BME280;55563;52.416;13.548;2023-05-19T04:32:58;102263.78;;;13.20;100.00
68594;BME280;55563;52.416;13.548;2023-05-19T04:35:02;102269.06;;;12.80;100.00
68594;BME280;55563;52.416;13.548;2023-05-19T04:37:03;102267.66;;;12.89;100.00
68594;BME280;55563;52.416;13.548;2023-05-19T04:39:07;102269.88;;;13.20;100.00
68594;BME280;55563;52.416;13.548;2023-05-19T04:41:14;102259.66;;;12.72;100.00
68594;BME280;55563;52.416;13.548;2023-05-19T04:43:17;102271.56;;;13.38;100.00
68594;BME280;55563;52.416;13.548;2023-05-19T04:45:20;102269.16;;;14.53;96.03
68594;BME280;55563;52.416;13.548;2023-05-19T04:47:24;102276.25;;;15.13;89.01
68594;BME280;55563;52.416;13.548;2023-05-19T04:49:29;102279.41;;;15.58;87.75
68594;BME280;55563;52.416;13.548;2023-05-19T04:51:29;102262.56;;;16.06;83.39
68594;BME280;55563;52.416;13.548;2023-05-19T04:53:32;102266.78;;;15.44;85.67
68594;BME280;55563;52.416;13.548;2023-05-19T04:55:36;102275.16;;;15.36;87.62
68594;BME280;55563;52.416;13.548;2023-05-19T04:57:40;102263.91;;;16.09;83.56
68594;BME280;55563;52.416;13.548;2023-05-19T04:59:42;102272.75;;;15.07;92.39
68594;BME280;55563;52.416;13.548;2023-05-19T05:01:44;102268.94;;;14.98;93.66
68594;BME280;55563;52.416;13.548;2023-05-19T05:03:48;102272.63;;;15.19;92.50
68594;BME280;55563;52.416;13.548;2023-05-19T05:05:51;102270.03;;;15.78;86.11
68594;BME280;55563;52.416;13.548;2023-05-19T05:07:54;102267.56;;;16.40;80.72
68594;BME280;55563;52.416;13.548;2023-05-19T05:09:56;102261.38;;;16.29;79.91
68594;BME280;55563;52.416;13.548;2023-05-19T05:11:58;102274.19;;;15.15;90.13
68594;BME280;55563;52.416;13.548;2023-05-19T05:14:00;102272.34;;;15.20;89.24
68594;BME280;55563;52.416;13.548;2023-05-19T05:16:05;102275.13;;;14.27;96.66
68594;BME280;55563;52.416;13.548;2023-05-19T05:18:07;102280.00;;;14.73;96.85
68594;BME280;55563;52.416;13.548;2023-05-19T05:20:11;102279.63;;;14.81;96.49
68594;BME280;55563;52.416;13.548;2023-05-19T05:22:13;102274.72;;;16.02;90.04
68594;BME280;55563;52.416;13.548;2023-05-19T05:24:16;102274.69;;;15.39;87.11
68594;BME280;55563;52.416;13.548;2023-05-19T05:26:29;102280.16;;;14.62;90.79
68594;BME280;55563;52.416;13.548;2023-05-19T05:28:31;102275.69;;;15.86;89.59
68594;BME280;55563;52.416;13.548;2023-05-19T05:30:33;102266.69;;;15.60;89.74
68594;BME280;55563;52.416;13.548;2023-05-19T05:32:34;102278.75;;;14.76;94.45
68594;BME280;55563;52.416;13.548;2023-05-19T05:34:39;102275.25;;;15.99;87.59
68594;BME280;55563;52.416;13.548;2023-05-19T05:36:42;102270.03;;;17.29;80.58
68594;BME280;55563;52.416;13.548;2023-05-19T05:38:43;102274.38;;;18.06;72.79
68594;BME280;55563;52.416;13.548;2023-05-19T05:40:46;102270.13;;;17.59;72.71
68594;BME280;55563;52.416;13.548;2023-05-19T05:42:47;102275.06;;;16.11;80.36
68594;BME280;55563;52.416;13.548;2023-05-19T05:44:49;102271.97;;;17.89;73.65
68594;BME280;55563;52.416;13.548;2023-05-19T05:46:52;102267.31;;;16.46;76.03
68594;BME280;55563;52.416;13.548;2023-05-19T05:48:56;102270.41;;;15.91;85.88
68594;BME280;55563;52.416;13.548;2023-05-19T05:50:58;102270.56;;;15.80;86.09
68594;BME280;55563;52.416;13.548;2023-05-19T05:53:05;102274.28;;;16.10;83.98
68594;BME280;55563;52.416;13.548;2023-05-19T05:55:10;102273.19;;;17.06;78.11
68594;BME280;55563;52.416;13.548;2023-05-19T05:57:13;102269.84;;;17.91;71.69
68594;BME280;55563;52.416;13.548;2023-05-19T05:59:16;102269.28;;;18.19;69.19
68594;BME280;55563;52.416;13.548;2023-05-19T06:01:17;102274.34;;;18.16;69.15
68594;BME280;55563;52.416;13.548;2023-05-19T06:03:19;102265.84;;;17.58;71.34
68594;BME280;55563;52.416;13.548;2023-05-19T06:05:25;102274.53;;;19.14;65.29
68594;BME280;55563;52.416;13.548;2023-05-19T06:07:29;102272.75;;;17.79;67.17
68594;BME280;55563;52.416;13.548;2023-05-19T06:09:32;102276.34;;;19.24;64.22
68594;BME280;55563;52.416;13.548;2023-05-19T06:11:33;102281.03;;;19.81;61.11
68594;BME280;55563;52.416;13.548;2023-05-19T06:13:34;102273.72;;;19.18;62.85
68594;BME280;55563;52.416;13.548;2023-05-19T06:15:39;102271.94;;;21.06;58.39
68594;BME280;55563;52.416;13.548;2023-05-19T06:17:50;102265.00;;;22.07;53.97
68594;BME280;55563;52.416;13.548;2023-05-19T06:19:53;102263.03;;;23.30;50.64
68594;BME280;55563;52.416;13.548;2023-05-19T06:21:55;102261.84;;;20.60;55.98
68594;BME280;55563;52.416;13.548;2023-05-19T06:23:57;102264.59;;;20.26;53.72
68594;BME280;55563;52.416;13.548;2023-05-19T06:26:01;102266.84;;;20.43;55.79
68594;BME280;55563;52.416;13.548;2023-05-19T06:28:04;102264.47;;;18.32;60.49
68594;BME280;55563;52.416;13.548;2023-05-19T06:30:07;102268.75;;;21.04;57.75
68594;BME280;55563;52.416;13.548;2023-05-19T06:32:19;102261.84;;;21.21;52.48
68594;BME280;55563;52.416;13.548;2023-05-19T06:34:20;102265.91;;;21.38;52.70
68594;BME280;55563;52.416;13.548;2023-05-19T06:36:21;102269.84;;;21.03;54.67
68594;BME280;55563;52.416;13.548;2023-05-19T06:38:23;102271.13;;;19.52;55.09
68594;BME280;55563;52.416;13.548;2023-05-19T06:40:24;102259.22;;;20.98;54.99
68594;BME280;55563;52.416;13.548;2023-05-19T06:42:26;102270.63;;;20.84;53.62
68594;BME280;55563;52.416;13.548;2023-05-19T06:44:49;102274.56;;;22.27;53.64
68594;BME280;55563;52.416;13.548;2023-05-19T06:46:52;102273.75;;;22.26;52.38
68594;BME280;55563;52.416;13.548;2023-05-19T06:48:55;102269.66;;;21.37;52.98
68594;BME280;55563;52.416;13.548;2023-05-19T06:50:59;102266.72;;;22.57;49.90
68594;BME280;55563;52.416;13.548;2023-05-19T06:53:01;102273.25;;;21.46;51.02
68594;BME280;55563;52.416;13.548;2023-05-19T06:55:06;102266.69;;;23.34;47.30
68594;BME280;55563;52.416;13.548;2023-05-19T06:57:07;102277.31;;;23.62;46.49
68594;BME280;55563;52.416;13.548;2023-05-19T06:59:09;102275.41;;;24.15;45.17
68594;BME280;55563;52.416;13.548;2023-05-19T07:01:11;102274.63;;;21.94;49.43
68594;BME280;55563;52.416;13.548;2023-05-19T07:03:18;102280.13;;;22.44;49.32
68594;BME280;55563;52.416;13.548;2023-05-19T07:05:19;102278.72;;;20.98;51.52
68594;BME280;55563;52.416;13.548;2023-05-19T07:07:25;102284.88;;;21.87;50.86
68594;BME280;55563;52.416;13.548;2023-05-19T07:09:31;102282.41;;;20.60;52.68
68594;BME280;55563;52.416;13.548;2023-05-19T07:11:34;102282.81;;;20.48;53.24
68594;BME280;55563;52.416;13.548;2023-05-19T07:13:35;102282.63;;;20.63;51.62
68594;BME280;55563;52.416;13.548;2023-05-19T07:15:38;102275.06;;;20.23;53.76
68594;BME280;55563;52.416;13.548;2023-05-19T07:17:39;102278.03;;;20.45;52.89
68594;BME280;55563;52.416;13.548;2023-05-19T07:19:41;102284.66;;;22.98;48.63
68594;BME280;55563;52.416;13.548;2023-05-19T07:22:07;102268.59;;;26.41;43.53
68594;BME280;55563;52.416;13.548;2023-05-19T07:24:09;102281.06;;;28.28;40.09
68594;BME280;55563;52.416;13.548;2023-05-19T07:26:10;102284.75;;;26.03;40.62
68594;BME280;55563;52.416;13.548;2023-05-19T07:28:12;102283.00;;;26.45;40.66
68594;BME280;55563;52.416;13.548;2023-05-19T07:30:14;102287.63;;;24.78;43.34
68594;BME280;55563;52.416;13.548;2023-05-19T07:32:15;102280.59;;;23.00;45.13
68594;BME280;55563;52.416;13.548;2023-05-19T07:34:15;102271.63;;;23.05;49.47
68594;BME280;55563;52.416;13.548;2023-05-19T07:36:17;102273.13;;;23.11;48.09
68594;BME280;55563;52.416;13.548;2023-05-19T07:38:20;102269.63;;;22.20;51.46
68594;BME280;55563;52.416;13.548;2023-05-19T07:40:22;102266.03;;;21.46;50.22
68594;BME280;55563;52.416;13.548;2023-05-19T07:42:23;102268.13;;;21.30;54.65
68594;BME280;55563;52.416;13.548;2023-05-19T07:44:24;102269.41;;;20.24;56.01
68594;BME280;55563;52.416;13.548;2023-05-19T07:46:26;102264.44;;;21.26;55.55
68594;BME280;55563;52.416;13.548;2023-05-19T07:48:28;102258.91;;;21.55;52.71
68594;BME280;55563;52.416;13.548;2023-05-19T07:50:31;102262.28;;;20.43;54.37
68594;BME280;55563;52.416;13.548;2023-05-19T07:52:32;102268.72;;;19.56;58.12
68594;BME280;55563;52.416;13.548;2023-05-19T07:54:36;102256.47;;;20.84;57.02
68594;BME280;55563;52.416;13.548;2023-05-19T07:56:39;102260.03;;;21.68;53.15
68594;BME280;55563;52.416;13.548;2023-05-19T07:58:40;102262.50;;;19.66;59.12
68594;BME280;55563;52.416;13.548;2023-05-19T08:00:40;102258.72;;;20.24;58.41
68594;BME280;55563;52.416;13.548;2023-05-19T08:02:43;102262.41;;;19.37;64.45
68594;BME280;55563;52.416;13.548;2023-05-19T08:04:44;102254.13;;;20.30;62.91
68594;BME280;55563;52.416;13.548;2023-05-19T08:06:46;102266.19;;;19.70;58.40
68594;BME280;55563;52.416;13.548;2023-05-19T08:08:49;102264.22;;;19.51;58.57
68594;BME280;55563;52.416;13.548;2023-05-19T08:10:50;102250.69;;;20.00;59.62
68594;BME280;55563;52.416;13.548;2023-05-19T08:12:52;102248.28;;;20.04;57.84
68594;BME280;55563;52.416;13.548;2023-05-19T08:14:53;102259.31;;;19.92;57.52
68594;BME280;55563;52.416;13.548;2023-05-19T08:16:55;102253.38;;;20.00;62.26
68594;BME280;55563;52.416;13.548;2023-05-19T08:18:58;102250.94;;;20.57;61.11
68594;BME280;55563;52.416;13.548;2023-05-19T08:21:04;102261.56;;;20.09;61.76
68594;BME280;55563;52.416;13.548;2023-05-19T08:23:05;102264.25;;;19.41;64.40
68594;BME280;55563;52.416;13.548;2023-05-19T08:25:07;102262.34;;;20.38;62.00
68594;BME280;55563;52.416;13.548;2023-05-19T08:27:10;102249.09;;;20.28;63.08
68594;BME280;55563;52.416;13.548;2023-05-19T08:29:12;102263.81;;;19.68;61.22
68594;BME280;55563;52.416;13.548;2023-05-19T08:31:14;102261.59;;;19.41;66.92
68594;BME280;55563;52.416;13.548;2023-05-19T08:33:15;102260.69;;;19.90;61.74
68594;BME280;55563;52.416;13.548;2023-05-19T08:35:17;102256.84;;;20.54;62.24
68594;BME280;55563;52.416;13.548;2023-05-19T08:37:20;102262.56;;;19.11;61.16
68594;BME280;55563;52.416;13.548;2023-05-19T08:39:24;102266.13;;;19.41;64.16
68594;BME280;55563;52.416;13.548;2023-05-19T08:41:26;102265.97;;;18.73;59.88
68594;BME280;55563;52.416;13.548;2023-05-19T08:43:27;102271.34;;;19.17;61.72
68594;BME280;55563;52.416;13.548;2023-05-19T08:45:29;102261.66;;;19.31;63.52
68594;BME280;55563;52.416;13.548;2023-05-19T08:47:31;102258.25;;;19.93;58.74
68594;BME280;55563;52.416;13.548;2023-05-19T08:49:36;102261.56;;;19.02;60.63
68594;BME280;55563;52.416;13.548;2023-05-19T08:52:05;102261.69;;;19.26;59.14
68594;BME280;55563;52.416;13.548;2023-05-19T08:54:14;102257.13;;;19.71;62.11
68594;BME280;55563;52.416;13.548;2023-05-19T08:56:20;102258.22;;;19.26;59.85
68594;BME280;55563;52.416;13.548;2023-05-19T08:58:24;102239.59;;;20.17;56.16
68594;BME280;55563;52.416;13.548;2023-05-19T09:00:27;102247.25;;;18.88;58.60
68594;BME280;55563;52.416;13.548;2023-05-19T09:02:30;102254.66;;;19.40;59.52
68594;BME280;55563;52.416;13.548;2023-05-19T09:04:32;102247.28;;;18.83;59.37
68594;BME280;55563;52.416;13.548;2023-05-19T09:06:33;102236.63;;;18.83;57.80
68594;BME280;55563;52.416;13.548;2023-05-19T09:08:36;102229.47;;;19.23;58.12
68594;BME280;55563;52.416;13.548;2023-05-19T09:10:37;102225.41;;;18.86;56.25
68594;BME280;55563;52.416;13.548;2023-05-19T09:12:38;102217.09;;;19.37;56.79
68594;BME280;55563;52.416;13.548;2023-05-19T09:14:40;102220.44;;;18.69;58.74
68594;BME280;55563;52.416;13.548;2023-05-19T09:16:42;102225.31;;;19.40;57.38
68594;BME280;55563;52.416;13.548;2023-05-19T09:18:56;102223.66;;;19.10;57.83
68594;BME280;55563;52.416;13.548;2023-05-19T09:21:00;102224.66;;;18.70;59.36
68594;BME280;55563;52.416;13.548;2023-05-19T09:23:03;102216.16;;;19.56;59.21
68594;BME280;55563;52.416;13.548;2023-05-19T09:25:05;102222.59;;;18.52;56.83
68594;BME280;55563;52.416;13.548;2023-05-19T09:27:20;102226.28;;;18.66;58.16
68594;BME280;55563;52.416;13.548;2023-05-19T09:29:23;102229.00;;;19.10;57.41
68594;BME280;55563;52.416;13.548;2023-05-19T09:31:23;102216.63;;;18.81;56.94
68594;BME280;55563;52.416;13.548;2023-05-19T09:33:26;102222.56;;;18.67;59.09
68594;BME280;55563;52.416;13.548;2023-05-19T09:35:27;102210.38;;;19.00;54.99
68594;BME280;55563;52.416;13.548;2023-05-19T09:37:28;102209.63;;;18.30;56.94
68594;BME280;55563;52.416;13.548;2023-05-19T09:39:31;102211.78;;;18.23;57.92
68594;BME280;55563;52.416;13.548;2023-05-19T09:41:34;102208.41;;;17.93;58.17
68594;BME280;55563;52.416;13.548;2023-05-19T09:43:36;102210.94;;;18.38;57.24
68594;BME280;55563;52.416;13.548;2023-05-19T09:45:39;102206.59;;;18.62;57.12
68594;BME280;55563;52.416;13.548;2023-05-19T09:47:41;102206.97;;;18.30;59.28
68594;BME280;55563;52.416;13.548;2023-05-19T09:49:46;102214.75;;;18.17;61.69
68594;BME280;55563;52.416;13.548;2023-05-19T09:51:49;102211.63;;;18.74;62.21
68594;BME280;55563;52.416;13.548;2023-05-19T09:53:51;102212.88;;;18.87;58.59
68594;BME280;55563;52.416;13.548;2023-05-19T09:55:56;102194.38;;;19.05;57.27
68594;BME280;55563;52.416;13.548;2023-05-19T09:57:57;102191.69;;;18.61;54.17
68594;BME280;55563;52.416;13.548;2023-05-19T10:00:03;102204.81;;;18.33;53.62
68594;BME280;55563;52.416;13.548;2023-05-19T10:02:27;102194.50;;;18.21;54.26
68594;BME280;55563;52.416;13.548;2023-05-19T10:04:29;102184.28;;;19.02;55.25
68594;BME280;55563;52.416;13.548;2023-05-19T10:06:42;102178.19;;;19.65;52.68
68594;BME280;55563;52.416;13.548;2023-05-19T10:08:44;102181.16;;;19.63;52.01
68594;BME280;55563;52.416;13.548;2023-05-19T10:10:46;102181.03;;;19.05;53.52
68594;BME280;55563;52.416;13.548;2023-05-19T10:12:48;102176.78;;;19.04;52.66
68594;BME280;55563;52.416;13.548;2023-05-19T10:14:49;102180.88;;;19.31;52.49
68594;BME280;55563;52.416;13.548;2023-05-19T10:16:55;102171.03;;;19.60;51.40
68594;BME280;55563;52.416;13.548;2023-05-19T10:18:57;102172.84;;;19.93;51.33
68594;BME280;55563;52.416;13.548;2023-05-19T10:20:59;102173.97;;;19.58;51.24
68594;BME280;55563;52.416;13.548;2023-05-19T10:23:02;102180.13;;;19.20;53.33
68594;BME280;55563;52.416;13.548;2023-05-19T10:25:04;102180.59;;;18.93;54.02
68594;BME280;55563;52.416;13.548;2023-05-19T10:27:11;102179.19;;;18.52;53.39
68594;BME280;55563;52.416;13.548;2023-05-19T10:29:17;102184.22;;;18.63;53.95
68594;BME280;55563;52.416;13.548;2023-05-19T10:31:21;102180.09;;;18.86;53.54
68594;BME280;55563;52.416;13.548;2023-05-19T10:36:33;102171.94;;;18.67;53.31
68594;BME280;55563;52.416;13.548;2023-05-19T10:38:45;102168.22;;;18.68;52.67
68594;BME280;55563;52.416;13.548;2023-05-19T10:41:10;102181.53;;;18.68;51.31
68594;BME280;55563;52.416;13.548;2023-05-19T10:43:53;102167.16;;;18.69;51.81
68594;BME280;55563;52.416;13.548;2023-05-19T10:45:59;102150.97;;;19.34;53.02
68594;BME280;55563;52.416;13.548;2023-05-19T10:48:01;102155.81;;;19.32;51.11
68594;BME280;55563;52.416;13.548;2023-05-19T10:50:03;102162.81;;;18.84;50.84
68594;BME280;55563;52.416;13.548;2023-05-19T10:52:18;102169.75;;;19.18;49.90
68594;BME280;55563;52.416;13.548;2023-05-19T10:54:41;102166.16;;;18.99;49.51
68594;BME280;55563;52.416;13.548;2023-05-19T10:56:46;102169.69;;;18.90;48.32